createdAt,value
2018-12-08T00:01:46.966Z,11.59
2018-12-08T00:02:46.881Z,11.64
2018-12-08T00:04:39.652Z,11.62
2018-12-08T00:05:39.590Z,11.59
2018-12-08T00:07:32.446Z,11.65
2018-12-08T00:08:32.321Z,11.61
2018-12-08T00:10:25.102Z,11.54
2018-12-08T00:11:25.038Z,11.54
2018-12-08T00:13:17.884Z,11.59
2018-12-08T00:14:17.760Z,11.59
2018-12-08T00:16:10.547Z,11.62
2018-12-08T00:17:10.482Z,11.64
2018-12-08T00:19:03.336Z,11.59
2018-12-08T00:20:03.206Z,11.57
2018-12-08T00:21:55.989Z,11.62
2018-12-08T00:22:55.927Z,11.54
2018-12-08T00:24:48.784Z,11.50
2018-12-08T00:25:48.652Z,11.59
2018-12-08T00:27:41.435Z,11.54
2018-12-08T00:28:41.374Z,11.56
2018-12-08T00:30:34.812Z,11.53
2018-12-08T00:31:34.489Z,11.54
2018-12-08T00:33:27.089Z,11.54
2018-12-08T00:34:27.029Z,11.59
2018-12-08T00:36:19.875Z,11.59
2018-12-08T00:37:19.753Z,11.56
2018-12-08T00:39:12.537Z,11.52
2018-12-08T00:40:12.473Z,11.57
2018-12-08T00:42:05.331Z,11.56
2018-12-08T00:43:05.196Z,11.57
2018-12-08T00:44:57.980Z,11.49
2018-12-08T00:45:57.917Z,11.52
2018-12-08T00:47:51.250Z,11.49
2018-12-08T00:48:51.138Z,11.50
2018-12-08T00:49:51.080Z,11.54
2018-12-08T00:50:51.125Z,11.54
2018-12-08T00:51:50.965Z,11.52
2018-12-08T00:52:50.909Z,11.47
2018-12-08T00:53:50.850Z,11.54
2018-12-08T00:54:50.804Z,11.46
2018-12-08T00:55:50.735Z,11.49
2018-12-08T00:56:50.679Z,11.53
2018-12-08T00:57:50.621Z,11.50
2018-12-08T00:58:50.568Z,11.50
2018-12-08T00:59:50.507Z,11.56
2018-12-08T01:00:50.449Z,11.50
2018-12-08T01:01:50.394Z,11.44
2018-12-08T01:02:50.335Z,11.53
2018-12-08T01:03:50.277Z,11.50
2018-12-08T01:04:50.219Z,11.56
2018-12-08T01:05:50.162Z,11.46
2018-12-08T01:06:50.109Z,11.47
2018-12-08T01:07:50.051Z,11.44
2018-12-08T01:08:49.991Z,11.41
2018-12-08T01:09:49.934Z,11.41
2018-12-08T01:10:49.877Z,11.43
2018-12-08T01:11:49.818Z,11.47
2018-12-08T01:12:49.761Z,11.38
2018-12-08T01:13:49.705Z,11.38
2018-12-08T01:14:49.648Z,11.38
2018-12-08T01:15:49.588Z,11.43
2018-12-08T01:16:49.532Z,11.47
2018-12-08T01:17:49.501Z,11.39
2018-12-08T01:18:49.512Z,11.38
2018-12-08T01:19:49.358Z,11.44
2018-12-08T01:20:49.303Z,11.46
2018-12-08T01:21:49.244Z,11.41
2018-12-08T01:22:49.188Z,11.44
2018-12-08T01:23:49.132Z,11.43
2018-12-08T01:24:49.072Z,11.43
2018-12-08T01:25:49.015Z,11.38
2018-12-08T01:26:48.959Z,11.47
2018-12-08T01:27:48.900Z,11.39
2018-12-08T01:28:48.847Z,11.43
2018-12-08T01:29:48.785Z,11.46
2018-12-08T01:30:48.730Z,11.44
2018-12-08T01:31:48.669Z,11.47
2018-12-08T01:32:48.613Z,11.44
2018-12-08T01:33:48.556Z,11.38
2018-12-08T01:34:48.498Z,11.43
2018-12-08T01:35:48.598Z,11.47
2018-12-08T01:36:48.388Z,11.50
2018-12-08T01:37:48.333Z,11.49
2018-12-08T01:38:48.273Z,11.47
2018-12-08T01:39:48.222Z,11.47
2018-12-08T01:40:48.156Z,11.46
2018-12-08T01:41:48.103Z,11.43
2018-12-08T01:42:48.043Z,11.47
2018-12-08T01:43:47.984Z,11.47
2018-12-08T01:44:47.929Z,11.44
2018-12-08T01:45:47.871Z,11.38
2018-12-08T01:46:47.813Z,11.44
2018-12-08T01:47:47.755Z,11.46
2018-12-08T01:48:47.698Z,11.43
2018-12-08T01:49:47.643Z,11.44
2018-12-08T01:50:47.582Z,11.41
2018-12-08T01:51:47.530Z,11.39
2018-12-08T01:52:47.467Z,11.35
2018-12-08T01:53:47.411Z,11.44
2018-12-08T01:54:47.353Z,11.35
2018-12-08T01:55:47.294Z,11.41
2018-12-08T01:56:47.239Z,11.36
2018-12-08T01:57:47.181Z,11.34
2018-12-08T01:58:47.123Z,11.38
2018-12-08T01:59:47.067Z,11.36
2018-12-08T02:00:47.009Z,11.34
2018-12-08T02:01:46.951Z,11.38
2018-12-08T02:02:46.897Z,11.34
2018-12-08T02:03:46.836Z,11.31
2018-12-08T02:04:46.779Z,11.36
2018-12-08T02:05:46.723Z,11.36
2018-12-08T02:06:46.664Z,11.36
2018-12-08T02:07:46.606Z,11.36
2018-12-08T02:08:46.548Z,11.34
2018-12-08T02:09:46.493Z,11.35
2018-12-08T02:10:46.434Z,11.31
2018-12-08T02:11:46.376Z,11.38
2018-12-08T02:12:46.320Z,11.39
2018-12-08T02:13:46.425Z,11.38
2018-12-08T02:14:46.204Z,11.35
2018-12-08T02:15:46.147Z,11.35
2018-12-08T02:16:46.137Z,11.32
2018-12-08T02:17:46.030Z,11.38
2018-12-08T02:18:45.975Z,11.36
2018-12-08T02:19:45.922Z,11.35
2018-12-08T02:20:45.858Z,11.32
2018-12-08T02:21:45.802Z,11.34
2018-12-08T02:22:45.747Z,11.35
2018-12-08T02:23:45.685Z,11.38
2018-12-08T02:24:45.630Z,11.32
2018-12-08T02:25:45.571Z,11.34
2018-12-08T02:26:45.513Z,11.28
2018-12-08T02:27:45.455Z,11.32
2018-12-08T02:28:45.403Z,11.34
2018-12-08T02:29:45.341Z,11.36
2018-12-08T02:30:45.283Z,11.31
2018-12-08T02:31:45.226Z,11.32
2018-12-08T02:32:45.174Z,11.38
2018-12-08T02:33:45.112Z,11.31
2018-12-08T02:34:45.058Z,11.35
2018-12-08T02:35:44.995Z,11.32
2018-12-08T02:36:44.938Z,11.35
2018-12-08T02:37:44.881Z,11.32
2018-12-08T02:38:44.825Z,11.36
2018-12-08T02:39:44.765Z,11.34
2018-12-08T02:40:44.707Z,11.31
2018-12-08T02:41:44.650Z,11.39
2018-12-08T02:42:44.597Z,11.36
2018-12-08T02:43:44.552Z,11.32
2018-12-08T02:44:44.595Z,11.34
2018-12-08T02:45:44.422Z,11.28
2018-12-08T02:46:44.364Z,11.35
2018-12-08T02:47:44.306Z,11.31
2018-12-08T02:48:44.247Z,11.34
2018-12-08T02:49:44.190Z,11.35
2018-12-08T02:50:44.135Z,11.38
2018-12-08T02:51:44.075Z,11.36
2018-12-08T02:52:44.020Z,11.38
2018-12-08T02:53:43.960Z,11.32
2018-12-08T02:54:43.904Z,11.35
2018-12-08T02:55:43.844Z,11.24
2018-12-08T02:56:43.787Z,11.29
2018-12-08T02:57:43.731Z,11.35
2018-12-08T02:58:43.673Z,11.32
2018-12-08T02:59:43.732Z,11.32
2018-12-08T03:00:43.556Z,11.34
2018-12-08T03:01:43.500Z,11.28
2018-12-08T03:02:43.441Z,11.28
2018-12-08T03:03:43.385Z,11.28
2018-12-08T03:04:43.326Z,11.32
2018-12-08T03:05:43.271Z,11.31
2018-12-08T03:06:43.213Z,11.32
2018-12-08T03:07:43.157Z,11.28
2018-12-08T03:08:43.095Z,11.34
2018-12-08T03:09:43.039Z,11.27
2018-12-08T03:10:42.982Z,11.28
2018-12-08T03:11:42.922Z,11.28
2018-12-08T03:12:42.867Z,11.31
2018-12-08T03:13:42.808Z,11.35
2018-12-08T03:14:42.754Z,11.29
2018-12-08T03:15:42.694Z,11.36
2018-12-08T03:16:42.636Z,11.27
2018-12-08T03:17:42.578Z,11.31
2018-12-08T03:18:42.521Z,11.27
2018-12-08T03:19:42.462Z,11.32
2018-12-08T03:20:42.406Z,11.21
2018-12-08T03:21:42.349Z,11.28
2018-12-08T03:22:42.291Z,11.24
2018-12-08T03:23:42.232Z,11.20
2018-12-08T03:24:42.176Z,11.31
2018-12-08T03:25:42.117Z,11.25
2018-12-08T03:26:42.064Z,11.27
2018-12-08T03:27:42.014Z,11.29
2018-12-08T03:28:41.945Z,11.24
2018-12-08T03:29:41.886Z,11.29
2018-12-08T03:30:41.841Z,11.29
2018-12-08T03:31:41.778Z,11.27
2018-12-08T03:32:41.716Z,11.20
2018-12-08T03:33:41.658Z,11.29
2018-12-08T03:34:41.604Z,11.29
2018-12-08T03:35:41.542Z,11.27
2018-12-08T03:36:41.484Z,11.17
2018-12-08T03:37:41.428Z,11.28
2018-12-08T03:38:41.369Z,11.21
2018-12-08T03:39:41.313Z,11.25
2018-12-08T03:40:41.255Z,11.28
2018-12-08T03:41:41.197Z,11.29
2018-12-08T03:42:41.141Z,11.14
2018-12-08T03:43:41.083Z,11.20
2018-12-08T03:44:41.026Z,11.19
2018-12-08T03:45:40.966Z,11.25
2018-12-08T03:46:40.910Z,11.21
2018-12-08T03:47:40.850Z,11.20
2018-12-08T03:48:40.795Z,11.19
2018-12-08T03:49:40.737Z,11.20
2018-12-08T03:50:40.679Z,11.14
2018-12-08T03:51:40.622Z,11.14
2018-12-08T03:52:40.576Z,11.24
2018-12-08T03:53:40.507Z,11.16
2018-12-08T03:54:40.449Z,11.16
2018-12-08T03:55:40.392Z,11.13
2018-12-08T03:56:40.334Z,11.17
2018-12-08T03:57:40.278Z,11.14
2018-12-08T03:58:40.218Z,11.24
2018-12-08T03:59:40.161Z,11.16
2018-12-08T04:00:40.104Z,11.13
2018-12-08T04:01:40.044Z,11.25
2018-12-08T04:02:39.986Z,11.13
2018-12-08T04:03:39.931Z,11.20
2018-12-08T04:04:39.873Z,11.11
2018-12-08T04:05:39.818Z,11.19
2018-12-08T04:06:39.757Z,11.24
2018-12-08T04:07:39.699Z,11.17
2018-12-08T04:08:39.641Z,11.21
2018-12-08T04:09:39.584Z,11.11
2018-12-08T04:10:39.526Z,11.20
2018-12-08T04:11:39.469Z,11.13
2018-12-08T04:12:39.412Z,11.16
2018-12-08T04:13:39.354Z,11.20
2018-12-08T04:14:39.296Z,11.24
2018-12-08T04:15:39.237Z,11.09
2018-12-08T04:16:39.181Z,11.16
2018-12-08T04:17:39.127Z,11.11
2018-12-08T04:18:39.065Z,11.13
2018-12-08T04:19:39.006Z,11.16
2018-12-08T04:20:38.949Z,11.13
2018-12-08T04:21:38.892Z,11.14
2018-12-08T04:22:38.838Z,11.16
2018-12-08T04:23:38.775Z,11.10
2018-12-08T04:24:38.735Z,11.16
2018-12-08T04:25:38.662Z,11.11
2018-12-08T04:26:38.605Z,11.16
2018-12-08T04:27:38.546Z,11.14
2018-12-08T04:28:38.488Z,11.11
2018-12-08T04:29:38.430Z,11.14
2018-12-08T04:30:38.374Z,11.14
2018-12-08T04:31:38.317Z,11.14
2018-12-08T04:32:38.258Z,11.13
2018-12-08T04:33:38.199Z,11.16
2018-12-08T04:34:38.143Z,11.13
2018-12-08T04:35:38.083Z,11.16
2018-12-08T04:36:38.093Z,11.13
2018-12-08T04:37:37.970Z,11.14
2018-12-08T04:38:37.913Z,11.14
2018-12-08T04:39:37.853Z,11.17
2018-12-08T04:40:37.797Z,11.09
2018-12-08T04:41:37.738Z,11.17
2018-12-08T04:42:37.682Z,11.11
2018-12-08T04:43:37.622Z,11.17
2018-12-08T04:44:37.571Z,11.10
2018-12-08T04:45:37.507Z,11.11
2018-12-08T04:46:37.449Z,11.14
2018-12-08T04:47:37.394Z,11.09
2018-12-08T04:48:37.335Z,11.09
2018-12-08T04:49:37.277Z,11.10
2018-12-08T04:50:37.219Z,11.10
2018-12-08T04:51:37.161Z,11.07
2018-12-08T04:52:37.106Z,11.11
2018-12-08T04:53:37.046Z,11.11
2018-12-08T04:54:36.991Z,11.07
2018-12-08T04:55:36.930Z,11.07
2018-12-08T04:56:36.873Z,11.13
2018-12-08T04:57:36.815Z,11.07
2018-12-08T04:58:36.764Z,11.06
2018-12-08T04:59:36.699Z,11.03
2018-12-08T05:00:36.646Z,11.02
2018-12-08T05:01:36.585Z,11.06
2018-12-08T05:02:36.530Z,11.06
2018-12-08T05:03:36.469Z,11.01
2018-12-08T05:04:36.410Z,11.10
2018-12-08T05:05:36.353Z,11.02
2018-12-08T05:06:36.296Z,11.02
2018-12-08T05:07:36.238Z,10.96
2018-12-08T05:08:36.180Z,11.01
2018-12-08T05:09:36.198Z,11.02
2018-12-08T05:10:36.066Z,11.03
2018-12-08T05:11:36.007Z,10.99
2018-12-08T05:12:35.949Z,11.01
2018-12-08T05:13:35.896Z,11.07
2018-12-08T05:14:35.835Z,11.03
2018-12-08T05:15:35.776Z,10.96
2018-12-08T05:16:35.722Z,11.09
2018-12-08T05:17:35.661Z,11.07
2018-12-08T05:18:35.604Z,11.02
2018-12-08T05:19:35.545Z,11.02
2018-12-08T05:20:35.488Z,11.02
2018-12-08T05:21:35.432Z,11.02
2018-12-08T05:22:35.376Z,11.02
2018-12-08T05:23:35.314Z,10.99
2018-12-08T05:24:35.258Z,10.96
2018-12-08T05:25:35.199Z,11.03
2018-12-08T05:26:35.143Z,11.07
2018-12-08T05:27:35.083Z,11.07
2018-12-08T05:28:35.026Z,11.14
2018-12-08T05:29:34.969Z,11.09
2018-12-08T05:30:34.911Z,11.03
2018-12-08T05:31:34.854Z,11.09
2018-12-08T05:32:34.797Z,10.96
2018-12-08T05:33:34.738Z,11.01
2018-12-08T05:34:34.681Z,11.03
2018-12-08T05:35:34.626Z,11.09
2018-12-08T05:36:34.564Z,11.03
2018-12-08T05:37:34.506Z,11.06
2018-12-08T05:38:34.448Z,11.06
2018-12-08T05:39:34.396Z,11.09
2018-12-08T05:40:34.333Z,10.98
2018-12-08T05:41:34.275Z,10.99
2018-12-08T05:42:34.217Z,11.07
2018-12-08T05:43:34.161Z,10.96
2018-12-08T05:44:34.103Z,10.99
2018-12-08T05:45:34.046Z,10.99
2018-12-08T05:46:33.987Z,11.06
2018-12-08T05:47:33.931Z,11.02
2018-12-08T05:48:33.871Z,11.02
2018-12-08T05:49:33.815Z,10.99
2018-12-08T05:50:33.763Z,11.06
2018-12-08T05:51:33.698Z,11.06
2018-12-08T05:52:34.639Z,10.99
2018-12-08T05:53:33.585Z,10.98
2018-12-08T05:54:33.525Z,10.98
2018-12-08T05:55:33.466Z,10.98
2018-12-08T05:56:33.408Z,10.99
2018-12-08T05:57:33.352Z,10.99
2018-12-08T05:58:33.293Z,11.09
2018-12-08T05:59:33.235Z,11.02
2018-12-08T06:00:33.181Z,10.98
2018-12-08T06:01:33.126Z,11.01
2018-12-08T06:02:33.062Z,10.99
2018-12-08T06:03:33.005Z,11.07
2018-12-08T06:04:32.950Z,11.07
2018-12-08T06:05:32.888Z,11.03
2018-12-08T06:06:32.831Z,10.96
2018-12-08T06:07:32.777Z,10.92
2018-12-08T06:08:32.717Z,10.96
2018-12-08T06:09:32.658Z,11.01
2018-12-08T06:10:32.650Z,11.02
2018-12-08T06:11:32.541Z,11.01
2018-12-08T06:12:32.485Z,10.98
2018-12-08T06:13:32.426Z,10.95
2018-12-08T06:14:32.368Z,10.98
2018-12-08T06:15:32.310Z,10.94
2018-12-08T06:16:32.252Z,10.98
2018-12-08T06:17:32.194Z,10.95
2018-12-08T06:18:32.137Z,10.96
2018-12-08T06:19:32.080Z,11.06
2018-12-08T06:20:32.022Z,11.03
2018-12-08T06:21:31.965Z,11.02
2018-12-08T06:22:31.905Z,10.96
2018-12-08T06:23:31.849Z,10.98
2018-12-08T06:24:31.790Z,10.92
2018-12-08T06:25:31.733Z,10.98
2018-12-08T06:26:31.678Z,10.96
2018-12-08T06:27:31.645Z,10.99
2018-12-08T06:28:31.557Z,10.99
2018-12-08T06:29:31.546Z,10.96
2018-12-08T06:30:31.443Z,10.96
2018-12-08T06:31:31.389Z,10.96
2018-12-08T06:32:31.327Z,11.01
2018-12-08T06:33:31.269Z,10.99
2018-12-08T06:34:31.213Z,10.94
2018-12-08T06:35:31.152Z,10.94
2018-12-08T06:36:31.095Z,11.01
2018-12-08T06:37:31.041Z,10.94
2018-12-08T06:38:30.980Z,10.94
2018-12-08T06:39:30.923Z,10.95
2018-12-08T06:40:30.865Z,10.95
2018-12-08T06:41:30.807Z,10.94
2018-12-08T06:42:30.750Z,10.95
2018-12-08T06:43:30.689Z,10.92
2018-12-08T06:44:30.635Z,10.94
2018-12-08T06:45:30.574Z,10.92
2018-12-08T06:46:30.517Z,10.92
2018-12-08T06:47:30.459Z,10.92
2018-12-08T06:48:30.401Z,10.94
2018-12-08T06:49:30.348Z,10.95
2018-12-08T06:50:30.286Z,10.91
2018-12-08T06:51:30.230Z,10.92
2018-12-08T06:52:30.310Z,10.91
2018-12-08T06:53:30.114Z,10.98
2018-12-08T06:54:30.056Z,10.96
2018-12-08T06:55:29.997Z,10.89
2018-12-08T06:56:29.939Z,10.89
2018-12-08T06:57:29.883Z,10.92
2018-12-08T07:00:01.421Z,10.95
2018-12-08T07:01:01.285Z,10.92
2018-12-08T07:02:54.079Z,10.99
2018-12-08T07:03:54.010Z,10.89
2018-12-08T07:05:46.863Z,10.89
2018-12-08T07:06:46.738Z,10.84
2018-12-08T07:08:39.526Z,10.88
2018-12-08T07:09:39.461Z,10.89
2018-12-08T07:11:32.305Z,10.84
2018-12-08T07:12:32.180Z,10.84
2018-12-08T07:14:24.970Z,10.89
2018-12-08T07:15:24.901Z,10.91
2018-12-08T07:17:17.761Z,10.94
2018-12-08T07:18:17.625Z,10.89
2018-12-08T07:20:10.411Z,10.91
2018-12-08T07:21:10.348Z,10.94
2018-12-08T07:23:03.212Z,10.83
2018-12-08T07:24:03.071Z,10.83
2018-12-08T07:25:56.354Z,10.92
2018-12-08T07:26:56.295Z,10.84
2018-12-08T07:27:56.236Z,10.83
2018-12-08T07:28:56.175Z,10.98
2018-12-08T07:29:56.116Z,10.83
2018-12-08T07:30:56.063Z,10.91
2018-12-08T07:31:56.001Z,10.83
2018-12-08T07:32:55.944Z,10.89
2018-12-08T07:33:55.886Z,10.83
2018-12-08T07:34:55.828Z,10.86
2018-12-08T07:35:55.770Z,10.80
2018-12-08T07:36:55.711Z,10.89
2018-12-08T07:37:55.654Z,10.81
2018-12-08T07:38:55.600Z,10.81
2018-12-08T07:39:55.537Z,10.83
2018-12-08T07:40:55.479Z,10.83
2018-12-08T07:41:55.421Z,10.81
2018-12-08T07:42:55.367Z,10.86
2018-12-08T07:43:55.306Z,10.83
2018-12-08T07:44:55.248Z,10.81
2018-12-08T07:45:55.293Z,10.94
2018-12-08T07:46:55.132Z,10.88
2018-12-08T07:47:55.074Z,10.83
2018-12-08T07:48:55.016Z,10.88
2018-12-08T07:49:54.958Z,10.86
2018-12-08T07:50:54.900Z,10.86
2018-12-08T07:51:54.842Z,10.84
2018-12-08T07:52:54.787Z,10.83
2018-12-08T07:53:54.725Z,10.83
2018-12-08T07:54:54.667Z,10.78
2018-12-08T07:55:54.610Z,10.80
2018-12-08T07:56:54.553Z,10.77
2018-12-08T07:57:54.497Z,10.80
2018-12-08T07:58:54.439Z,10.88
2018-12-08T07:59:54.378Z,10.91
2018-12-08T08:00:54.324Z,10.84
2018-12-08T08:01:54.263Z,10.84
2018-12-08T08:02:54.207Z,10.76
2018-12-08T08:03:54.147Z,10.81
2018-12-08T08:04:54.090Z,10.78
2018-12-08T08:05:54.030Z,10.86
2018-12-08T08:06:53.974Z,10.84
2018-12-08T08:07:53.914Z,10.80
2018-12-08T08:08:53.857Z,10.88
2018-12-08T08:09:53.800Z,10.83
2018-12-08T08:10:53.740Z,10.84
2018-12-08T08:11:53.689Z,10.84
2018-12-08T08:12:53.625Z,10.77
2018-12-08T08:13:53.567Z,10.86
2018-12-08T08:14:53.611Z,10.77
2018-12-08T08:15:53.452Z,10.76
2018-12-08T08:16:53.392Z,10.83
2018-12-08T08:17:53.334Z,10.81
2018-12-08T08:18:53.276Z,10.84
2018-12-08T08:19:53.219Z,10.81
2018-12-08T08:20:53.163Z,10.78
2018-12-08T08:21:53.104Z,10.84
2018-12-08T08:22:53.046Z,10.86
2018-12-08T08:23:52.992Z,10.77
2018-12-08T08:24:52.930Z,10.83
2018-12-08T08:25:52.870Z,10.83
2018-12-08T08:26:52.811Z,10.78
2018-12-08T08:27:52.758Z,10.77
2018-12-08T08:28:52.696Z,10.77
2018-12-08T08:29:52.640Z,10.77
2018-12-08T08:30:52.583Z,10.83
2018-12-08T08:31:52.525Z,10.83
2018-12-08T08:32:52.465Z,10.76
2018-12-08T08:33:52.405Z,10.78
2018-12-08T08:34:52.348Z,10.83
2018-12-08T08:35:52.291Z,10.76
2018-12-08T08:36:52.234Z,10.77
2018-12-08T08:37:52.177Z,10.77
2018-12-08T08:38:52.117Z,10.80
2018-12-08T08:39:52.059Z,10.77
2018-12-08T08:40:52.002Z,10.80
2018-12-08T08:41:51.941Z,10.77
2018-12-08T08:42:51.898Z,10.81
2018-12-08T08:43:51.827Z,10.81
2018-12-08T08:44:51.770Z,10.77
2018-12-08T08:45:51.709Z,10.78
2018-12-08T08:46:51.656Z,10.73
2018-12-08T08:47:51.595Z,10.76
2018-12-08T08:48:51.538Z,10.76
2018-12-08T08:49:51.478Z,10.77
2018-12-08T08:50:51.420Z,10.74
2018-12-08T08:51:51.364Z,10.76
2018-12-08T08:52:51.306Z,10.74
2018-12-08T08:53:51.250Z,10.76
2018-12-08T08:54:51.191Z,10.78
2018-12-08T08:55:51.135Z,10.78
2018-12-08T08:56:51.074Z,10.77
2018-12-08T08:57:51.020Z,10.78
2018-12-08T08:58:50.956Z,10.74
2018-12-08T08:59:50.898Z,10.78
2018-12-08T09:00:52.238Z,10.86
2018-12-08T09:01:50.785Z,10.74
2018-12-08T09:02:50.723Z,10.77
2018-12-08T09:03:50.676Z,10.80
2018-12-08T09:04:50.614Z,10.73
2018-12-08T09:05:50.551Z,10.80
2018-12-08T09:06:50.492Z,10.77
2018-12-08T09:07:50.434Z,10.77
2018-12-08T09:08:50.377Z,10.74
2018-12-08T09:09:50.318Z,10.78
2018-12-08T09:10:50.263Z,10.76
2018-12-08T09:11:50.202Z,10.80
2018-12-08T09:12:50.146Z,10.78
2018-12-08T09:13:50.086Z,10.74
2018-12-08T09:14:50.032Z,10.74
2018-12-08T09:15:50.047Z,10.78
2018-12-08T09:16:49.912Z,10.81
2018-12-08T09:17:49.856Z,10.74
2018-12-08T09:18:49.797Z,10.81
2018-12-08T09:19:49.742Z,10.71
2018-12-08T09:20:49.680Z,10.74
2018-12-08T09:21:49.622Z,10.78
2018-12-08T09:22:49.567Z,10.77
2018-12-08T09:23:49.509Z,10.76
2018-12-08T09:24:49.448Z,10.83
2018-12-08T09:25:49.390Z,10.81
2018-12-08T09:26:49.333Z,10.80
2018-12-08T09:27:49.333Z,10.76
2018-12-08T09:28:49.217Z,10.74
2018-12-08T09:29:49.161Z,10.74
2018-12-08T09:30:49.100Z,10.74
2018-12-08T09:31:49.047Z,10.76
2018-12-08T09:32:48.984Z,10.76
2018-12-08T09:33:48.925Z,10.76
2018-12-08T09:34:48.869Z,10.86
2018-12-08T09:35:48.812Z,10.80
2018-12-08T09:36:48.752Z,10.77
2018-12-08T09:37:48.695Z,10.83
2018-12-08T09:38:48.636Z,10.80
2018-12-08T09:39:48.577Z,10.78
2018-12-08T09:40:48.521Z,10.74
2018-12-08T09:41:48.462Z,10.77
2018-12-08T09:42:48.404Z,10.74
2018-12-08T09:43:48.346Z,10.71
2018-12-08T09:44:48.288Z,10.81
2018-12-08T09:45:48.235Z,10.76
2018-12-08T09:46:48.172Z,10.78
2018-12-08T09:47:48.115Z,10.77
2018-12-08T09:48:48.055Z,10.81
2018-12-08T09:49:48.013Z,10.76
2018-12-08T09:50:47.940Z,10.76
2018-12-08T09:51:47.883Z,10.78
2018-12-08T09:52:47.823Z,10.80
2018-12-08T09:53:47.771Z,10.78
2018-12-08T09:54:47.709Z,10.88
2018-12-08T09:55:47.649Z,10.76
2018-12-08T09:56:47.595Z,10.73
2018-12-08T09:57:47.533Z,10.77
2018-12-08T09:58:47.477Z,10.80
2018-12-08T09:59:47.418Z,10.80
2018-12-08T10:00:47.361Z,10.74
2018-12-08T10:01:47.301Z,10.76
2018-12-08T10:02:47.246Z,10.77
2018-12-08T10:03:47.184Z,10.78
2018-12-08T10:04:47.128Z,10.78
2018-12-08T10:05:47.070Z,10.74
2018-12-08T10:06:47.010Z,10.76
2018-12-08T10:07:46.953Z,10.76
2018-12-08T10:08:46.896Z,10.80
2018-12-08T10:09:46.841Z,10.84
2018-12-08T10:10:46.780Z,10.78
2018-12-08T10:11:46.723Z,10.81
2018-12-08T10:12:46.665Z,10.80
2018-12-08T10:13:46.604Z,10.77
2018-12-08T10:14:46.547Z,10.88
2018-12-08T10:15:46.489Z,10.77
2018-12-08T10:16:46.431Z,10.74
2018-12-08T10:17:46.373Z,10.76
2018-12-08T10:18:46.316Z,10.78
2018-12-08T10:19:46.257Z,10.78
2018-12-08T10:20:46.283Z,10.78
2018-12-08T10:21:46.141Z,10.77
2018-12-08T10:22:46.098Z,10.80
2018-12-08T10:23:46.078Z,10.74
2018-12-08T10:24:45.968Z,10.76
2018-12-08T10:25:45.909Z,10.77
2018-12-08T10:26:45.851Z,10.78
2018-12-08T10:27:45.799Z,10.77
2018-12-08T10:28:45.736Z,10.76
2018-12-08T10:29:45.678Z,10.77
2018-12-08T10:30:45.618Z,10.76
2018-12-08T10:31:45.652Z,10.74
2018-12-08T10:32:45.503Z,10.78
2018-12-08T10:33:45.446Z,10.77
2018-12-08T10:34:45.385Z,10.77
2018-12-08T10:35:45.329Z,10.78
2018-12-08T10:36:45.273Z,10.74
2018-12-08T10:37:45.213Z,10.76
2018-12-08T10:38:45.153Z,10.77
2018-12-08T10:39:45.095Z,10.78
2018-12-08T10:40:45.039Z,10.77
2018-12-08T10:41:44.978Z,10.71
2018-12-08T10:42:44.921Z,10.73
2018-12-08T10:43:44.865Z,10.74
2018-12-08T10:44:44.811Z,10.74
2018-12-08T10:45:44.746Z,10.80
2018-12-08T10:46:44.688Z,10.73
2018-12-08T10:47:44.631Z,10.77
2018-12-08T10:48:44.574Z,10.77
2018-12-08T10:49:44.518Z,10.74
2018-12-08T10:50:44.456Z,10.83
2018-12-08T10:51:44.403Z,10.74
2018-12-08T10:52:44.340Z,10.78
2018-12-08T10:53:44.282Z,10.81
2018-12-08T10:54:44.229Z,10.73
2018-12-08T10:55:44.174Z,10.88
2018-12-08T10:56:44.108Z,10.76
2018-12-08T10:57:44.052Z,10.73
2018-12-08T10:58:43.993Z,10.76
2018-12-08T10:59:43.934Z,10.76
2018-12-08T11:00:43.876Z,10.77
2018-12-08T11:01:43.819Z,10.74
2018-12-08T11:02:43.759Z,10.80
2018-12-08T11:03:43.704Z,10.76
2018-12-08T11:04:43.643Z,10.77
2018-12-08T11:05:43.585Z,10.78
2018-12-08T11:06:43.538Z,10.80
2018-12-08T11:07:43.469Z,10.78
2018-12-08T11:08:43.411Z,10.80
2018-12-08T11:09:43.361Z,10.81
2018-12-08T11:10:43.311Z,10.76
2018-12-08T11:11:43.242Z,10.83
2018-12-08T11:12:43.180Z,10.80
2018-12-08T11:13:43.137Z,10.76
2018-12-08T11:14:43.063Z,10.83
2018-12-08T11:15:43.004Z,10.84
2018-12-08T11:16:42.945Z,10.84
2018-12-08T11:17:43.496Z,10.92
2018-12-08T11:18:42.831Z,10.83
2018-12-08T11:19:42.773Z,10.83
2018-12-08T11:20:42.714Z,10.83
2018-12-08T11:21:42.656Z,10.76
2018-12-08T11:22:42.601Z,10.83
2018-12-08T11:23:42.540Z,10.86
2018-12-08T11:24:42.482Z,10.86
2018-12-08T11:25:42.422Z,10.80
2018-12-08T11:26:42.366Z,10.84
2018-12-08T11:27:42.308Z,10.84
2018-12-08T11:28:42.249Z,10.74
2018-12-08T11:29:42.193Z,10.83
2018-12-08T11:30:42.133Z,10.86
2018-12-08T11:31:42.075Z,10.77
2018-12-08T11:32:42.022Z,10.76
2018-12-08T11:33:41.958Z,10.80
2018-12-08T11:34:41.901Z,10.76
2018-12-08T11:35:41.842Z,10.77
2018-12-08T11:36:49.359Z,10.77
2018-12-08T11:37:41.729Z,10.77
2018-12-08T11:38:41.668Z,10.76
2018-12-08T11:39:41.611Z,10.88
2018-12-08T11:40:41.554Z,10.83
2018-12-08T11:41:41.494Z,10.78
2018-12-08T11:42:41.437Z,10.81
2018-12-08T11:43:41.381Z,10.81
2018-12-08T11:44:41.321Z,10.83
2018-12-08T11:45:41.262Z,10.86
2018-12-08T11:46:41.204Z,10.74
2018-12-08T11:47:42.003Z,10.77
2018-12-08T11:48:41.089Z,10.74
2018-12-08T11:49:43.012Z,10.81
2018-12-08T11:50:40.972Z,10.84
2018-12-08T11:51:40.916Z,10.84
2018-12-08T11:52:40.856Z,10.81
2018-12-08T11:53:40.799Z,10.83
2018-12-08T11:54:40.739Z,10.78
2018-12-08T11:55:40.682Z,10.86
2018-12-08T11:56:40.706Z,10.78
2018-12-08T11:57:40.566Z,10.89
2018-12-08T11:58:40.513Z,10.81
2018-12-08T11:59:40.450Z,10.86
2018-12-08T12:00:40.393Z,10.86
2018-12-08T12:01:40.334Z,10.88
2018-12-08T12:02:40.277Z,10.83
2018-12-08T12:03:40.217Z,10.84
2018-12-08T12:04:40.161Z,10.80
2018-12-08T12:05:40.101Z,10.92
2018-12-08T12:06:41.005Z,10.80
2018-12-08T12:07:39.985Z,10.84
2018-12-08T12:08:39.928Z,10.84
2018-12-08T12:09:39.920Z,10.77
2018-12-08T12:10:39.811Z,10.81
2018-12-08T12:11:39.752Z,10.77
2018-12-08T12:12:39.695Z,10.80
2018-12-08T12:13:39.639Z,10.88
2018-12-08T12:14:39.578Z,10.83
2018-12-08T12:15:39.520Z,10.81
2018-12-08T12:16:39.461Z,10.76
2018-12-08T12:17:39.404Z,10.84
2018-12-08T12:18:39.347Z,10.77
2018-12-08T12:19:39.288Z,10.81
2018-12-08T12:20:39.230Z,10.88
2018-12-08T12:21:39.171Z,10.83
2018-12-08T12:22:39.113Z,10.86
2018-12-08T12:23:39.062Z,10.78
2018-12-08T12:24:39.000Z,10.88
2018-12-08T12:25:38.939Z,10.83
2018-12-08T12:26:38.881Z,10.86
2018-12-08T12:27:38.824Z,10.81
2018-12-08T12:28:38.765Z,10.86
2018-12-08T12:29:38.706Z,10.83
2018-12-08T12:30:38.649Z,10.86
2018-12-08T12:31:38.590Z,10.88
2018-12-08T12:32:38.541Z,10.88
2018-12-08T12:33:38.474Z,10.80
2018-12-08T12:34:38.417Z,10.83
2018-12-08T12:35:38.359Z,10.78
2018-12-08T12:36:38.303Z,10.86
2018-12-08T12:37:38.253Z,10.78
2018-12-08T12:38:38.187Z,10.89
2018-12-08T12:39:38.127Z,10.88
2018-12-08T12:40:38.068Z,10.88
2018-12-08T12:41:38.008Z,10.83
2018-12-08T12:42:37.951Z,10.81
2018-12-08T12:43:37.895Z,10.88
2018-12-08T12:44:37.836Z,10.76
2018-12-08T12:45:37.786Z,10.83
2018-12-08T12:46:37.729Z,10.77
2018-12-08T12:47:37.662Z,10.84
2018-12-08T12:48:37.604Z,10.77
2018-12-08T12:49:37.547Z,10.83
2018-12-08T12:50:37.494Z,10.83
2018-12-08T12:51:37.431Z,10.83
2018-12-08T12:52:37.372Z,10.92
2018-12-08T12:53:37.313Z,10.86
2018-12-08T12:54:37.259Z,10.84
2018-12-08T12:55:37.197Z,10.92
2018-12-08T12:56:37.147Z,10.84
2018-12-08T12:57:37.080Z,10.86
2018-12-08T12:58:37.022Z,10.84
2018-12-08T12:59:36.965Z,10.88
2018-12-08T13:00:36.907Z,10.88
2018-12-08T13:01:36.848Z,10.84
2018-12-08T13:02:36.795Z,10.88
2018-12-08T13:03:36.733Z,10.84
2018-12-08T13:04:36.688Z,10.80
2018-12-08T13:05:36.616Z,10.86
2018-12-08T13:06:36.558Z,10.88
2018-12-08T13:07:36.500Z,10.88
2018-12-08T13:08:36.443Z,10.88
2018-12-08T13:09:36.383Z,10.80
2018-12-08T13:10:36.325Z,10.78
2018-12-08T13:11:36.270Z,10.89
2018-12-08T13:12:36.210Z,10.88
2018-12-08T13:13:36.151Z,10.83
2018-12-08T13:14:36.093Z,10.84
2018-12-08T13:15:36.036Z,10.77
2018-12-08T13:16:35.978Z,10.84